Time;durP1;ratioP1;P1;durP2;ratioP2;P2;SDS_P1;SDS_P2;PMS_P1;PMS_P2;Temp;Humidity;BMP_temperature;BMP_pressure;BME280_temperature;BME280_humidity;BME280_pressure;Samples;Min_cycle;Max_cycle;Signal;HPM_P1;HPM_P2
2021/11/08 00:00:32;;;;;;;7.25;1.70;;;18.50;65.40;;;;;;6214572;23;20351;-71
2021/11/08 00:03:00;;;;;;;2.40;1.33;;;18.50;65.40;;;;;;6214542;23;20347;-71
2021/11/08 00:05:26;;;;;;;5.20;1.50;;;18.50;65.40;;;;;;6214759;23;20005;-71
2021/11/08 00:07:56;;;;;;;2.50;1.30;;;18.50;65.40;;;;;;6215733;23;20063;-71
2021/11/08 00:10:28;;;;;;;8.32;1.77;;;18.50;65.40;;;;;;6215769;23;20430;-71
2021/11/08 00:12:54;;;;;;;3.65;1.23;;;18.50;65.50;;;;;;6216132;23;20001;-71
2021/11/08 00:15:25;;;;;;;2.83;1.08;;;18.50;65.50;;;;;;6214290;23;20361;-71
2021/11/08 00:17:59;;;;;;;3.35;1.10;;;18.50;65.50;;;;;;6214513;23;20058;-70
2021/11/08 00:20:28;;;;;;;5.03;1.58;;;18.50;65.60;;;;;;6214688;23;20466;-71
2021/11/08 00:22:54;;;;;;;4.22;1.30;;;18.50;65.60;;;;;;6215995;23;20035;-71
2021/11/08 00:25:20;;;;;;;4.07;1.20;;;18.40;65.60;;;;;;6216157;23;20000;-71
2021/11/08 00:27:45;;;;;;;2.50;1.40;;;18.50;65.70;;;;;;6215959;23;20011;-71
2021/11/08 00:30:12;;;;;;;3.45;1.17;;;18.40;65.60;;;;;;6215871;23;20076;-71
2021/11/08 00:32:39;;;;;;;5.50;1.70;;;18.40;65.70;;;;;;6215942;23;20025;-71
2021/11/08 00:35:06;;;;;;;3.65;1.40;;;18.40;65.80;;;;;;6214547;23;20076;-71
2021/11/08 00:37:32;;;;;;;3.70;1.70;;;18.40;65.70;;;;;;6214168;23;20000;-71
2021/11/08 00:39:58;;;;;;;3.53;1.33;;;18.40;65.80;;;;;;6214498;23;20008;-71
2021/11/08 00:42:28;;;;;;;3.00;1.17;;;18.40;65.80;;;;;;6215624;23;20455;-71
2021/11/08 00:44:55;;;;;;;4.65;1.20;;;18.40;65.80;;;;;;6214578;23;20005;-71
2021/11/08 00:47:20;;;;;;;3.65;1.35;;;18.40;65.90;;;;;;6215270;23;20005;-71
2021/11/08 00:49:46;;;;;;;2.72;1.42;;;18.40;65.90;;;;;;6214402;23;20009;-71
2021/11/08 00:52:12;;;;;;;2.65;1.50;;;18.40;65.90;;;;;;6215286;23;20518;-71
2021/11/08 00:54:39;;;;;;;3.85;1.40;;;18.30;65.90;;;;;;6214086;23;19996;-71
2021/11/08 00:57:08;;;;;;;3.13;1.45;;;18.40;66.00;;;;;;6214104;23;20024;-71
2021/11/08 00:59:33;;;;;;;1.75;1.17;;;18.30;65.90;;;;;;6213983;23;20040;-70
2021/11/08 01:01:59;;;;;;;3.35;1.33;;;18.30;66.00;;;;;;6215538;23;20005;-70
2021/11/08 01:04:25;;;;;;;2.38;1.33;;;18.30;66.00;;;;;;6215178;23;20059;-71
2021/11/08 01:06:54;;;;;;;2.95;1.05;;;18.30;66.10;;;;;;6213761;23;20416;-71
2021/11/08 01:09:20;;;;;;;4.85;1.52;;;18.30;66.00;;;;;;6214587;23;20032;-70
2021/11/08 01:11:46;;;;;;;6.25;1.67;;;18.30;66.10;;;;;;6213276;23;20078;-71
2021/11/08 01:14:12;;;;;;;3.60;1.42;;;18.30;66.10;;;;;;6213345;23;20578;-71
2021/11/08 01:16:38;;;;;;;3.70;1.20;;;18.30;66.10;;;;;;6213141;23;20001;-71
2021/11/08 01:19:06;;;;;;;2.38;0.90;;;18.30;66.10;;;;;;6213303;23;20021;-71
2021/11/08 01:21:33;;;;;;;5.05;1.33;;;18.30;66.20;;;;;;6213372;23;20005;-70
2021/11/08 01:23:59;;;;;;;3.83;1.27;;;18.30;66.20;;;;;;6214781;23;20340;-71
2021/11/08 01:26:26;;;;;;;4.85;1.60;;;18.30;66.20;;;;;;6213361;23;20005;-71
2021/11/08 01:28:52;;;;;;;2.97;1.33;;;18.30;66.20;;;;;;6213235;23;20448;-71
2021/11/08 01:31:17;;;;;;;3.78;1.30;;;18.20;66.20;;;;;;6213113;23;19996;-71
2021/11/08 01:33:47;;;;;;;3.17;1.55;;;18.30;66.30;;;;;;6214386;23;20000;-71
2021/11/08 01:36:14;;;;;;;3.05;1.33;;;18.20;66.30;;;;;;6213375;23;20000;-71
2021/11/08 01:38:45;;;;;;;2.50;1.15;;;18.20;66.30;;;;;;6214670;23;19997;-71
2021/11/08 01:41:17;;;;;;;4.03;1.40;;;18.20;66.30;;;;;;6213213;23;19997;-71
2021/11/08 01:43:43;;;;;;;5.10;1.40;;;18.20;66.40;;;;;;6188789;23;20000;-70
2021/11/08 01:46:08;;;;;;;2.83;1.38;;;18.20;66.50;;;;;;6214778;23;20459;-71
2021/11/08 01:48:34;;;;;;;2.75;1.13;;;18.20;66.50;;;;;;6214102;23;20024;-70
2021/11/08 01:51:00;;;;;;;3.20;1.65;;;18.20;66.50;;;;;;6214692;23;20039;-70
2021/11/08 01:53:26;;;;;;;3.67;1.33;;;18.20;66.50;;;;;;6214462;23;20023;-70
2021/11/08 01:55:52;;;;;;;3.70;1.10;;;18.20;66.50;;;;;;6213211;23;20440;-70
2021/11/08 01:58:19;;;;;;;1.92;1.08;;;18.20;66.50;;;;;;6188958;23;19996;-70
2021/11/08 02:00:46;;;;;;;3.88;1.20;;;18.20;66.50;;;;;;6190311;23;20448;-70
2021/11/08 02:03:11;;;;;;;3.97;1.30;;;18.20;66.60;;;;;;6216198;23;20025;-70
2021/11/08 02:05:37;;;;;;;4.22;1.30;;;18.10;66.60;;;;;;6215040;23;20024;-70
2021/11/08 02:08:03;;;;;;;2.50;1.10;;;18.10;66.50;;;;;;6216424;23;20062;-70
2021/11/08 02:10:29;;;;;;;2.38;1.10;;;18.20;66.60;;;;;;6214685;23;20005;-70
2021/11/08 02:12:55;;;;;;;4.03;1.25;;;18.10;66.60;;;;;;6215094;23;19997;-70
2021/11/08 02:15:21;;;;;;;4.32;1.20;;;18.10;66.60;;;;;;6216292;23;20004;-70
2021/11/08 02:17:48;;;;;;;4.30;0.95;;;18.10;66.70;;;;;;6214344;23;20095;-70
2021/11/08 02:20:28;;;;;;;2.60;1.20;;;18.10;66.70;;;;;;6215071;23;20001;-70
2021/11/08 02:22:56;;;;;;;2.35;1.20;;;18.10;66.70;;;;;;6216550;23;20008;-70
2021/11/08 02:25:22;;;;;;;1.85;1.23;;;18.10;66.70;;;;;;6214775;23;20344;-70
2021/11/08 02:27:48;;;;;;;1.60;1.00;;;18.10;66.80;;;;;;6189974;23;20436;-70
2021/11/08 02:30:14;;;;;;;3.35;0.75;;;18.10;66.80;;;;;;6214929;23;20007;-70
2021/11/08 02:32:40;;;;;;;2.78;1.20;;;18.10;66.80;;;;;;6214336;23;20432;-70
2021/11/08 02:35:07;;;;;;;3.47;1.25;;;18.10;66.80;;;;;;6216253;23;20005;-70
2021/11/08 02:37:33;;;;;;;3.22;1.20;;;18.10;66.80;;;;;;6214674;23;20397;-70
2021/11/08 02:40:00;;;;;;;2.72;1.20;;;18.10;66.90;;;;;;6216146;23;20007;-70
2021/11/08 02:42:27;;;;;;;2.88;1.23;;;18.10;67.00;;;;;;6216156;23;20008;-71
2021/11/08 02:44:53;;;;;;;3.72;1.20;;;18.10;66.90;;;;;;6216296;23;20004;-71
2021/11/08 02:47:18;;;;;;;1.88;1.10;;;18.10;66.90;;;;;;6214357;23;20082;-71
2021/11/08 02:49:46;;;;;;;3.50;1.50;;;18.00;66.90;;;;;;6215871;23;20005;-71
2021/11/08 02:52:16;;;;;;;3.45;1.25;;;18.10;67.00;;;;;;6214669;23;20455;-70
2021/11/08 02:54:45;;;;;;;2.63;1.30;;;18.00;66.90;;;;;;6216017;23;20447;-70
2021/11/08 02:57:11;;;;;;;2.13;1.08;;;18.00;67.00;;;;;;6216029;23;19997;-70
2021/11/08 02:59:38;;;;;;;3.90;1.50;;;18.00;67.00;;;;;;6215999;23;20015;-71
2021/11/08 03:02:05;;;;;;;1.88;1.33;;;18.00;67.00;;;;;;6214300;23;20012;-71
2021/11/08 03:04:37;;;;;;;4.05;1.23;;;18.00;67.00;;;;;;6215810;23;20479;-71
2021/11/08 03:07:03;;;;;;;2.65;1.10;;;18.00;67.00;;;;;;6216045;23;20444;-71
2021/11/08 03:09:34;;;;;;;2.97;0.98;;;18.00;67.20;;;;;;6214010;23;20082;-71
2021/11/08 03:12:06;;;;;;;3.08;0.98;;;18.00;67.10;;;;;;6214404;23;20001;-71
2021/11/08 03:14:34;;;;;;;2.10;1.07;;;18.00;67.20;;;;;;6214535;23;20001;-71
2021/11/08 03:17:01;;;;;;;2.88;1.20;;;18.00;67.20;;;;;;6215406;23;20307;-71
2021/11/08 03:19:35;;;;;;;4.30;1.63;;;18.00;67.20;;;;;;6214326;23;20016;-71
2021/11/08 03:22:04;;;;;;;2.08;1.10;;;18.00;67.20;;;;;;6191352;23;20008;-71
2021/11/08 03:24:53;;;;;;;2.92;1.42;;;18.00;67.20;;;;;;6214273;23;20000;-71
2021/11/08 03:27:29;;;;;;;2.58;1.30;;;18.00;67.30;;;;;;6193971;23;20083;-71
2021/11/08 03:29:55;;;;;;;2.63;1.02;;;18.00;67.30;;;;;;6213866;23;20083;-71
2021/11/08 03:32:22;;;;;;;4.03;1.13;;;18.00;67.30;;;;;;6215924;23;20000;-71
2021/11/08 03:35:10;;;;;;;3.05;1.10;;;18.00;67.40;;;;;;6215994;23;20001;-71
2021/11/08 03:37:38;;;;;;;3.03;1.20;;;18.00;67.40;;;;;;6213788;23;20034;-71
2021/11/08 03:40:05;;;;;;;2.25;1.08;;;18.00;67.40;;;;;;6214143;23;20008;-70
2021/11/08 03:42:31;;;;;;;3.83;1.10;;;18.00;67.40;;;;;;6214520;23;20004;-71
2021/11/08 03:44:56;;;;;;;2.05;1.17;;;18.00;67.40;;;;;;6188952;23;20006;-70
2021/11/08 03:47:22;;;;;;;4.30;1.30;;;18.00;67.50;;;;;;6189174;23;20012;-70
2021/11/08 03:49:48;;;;;;;3.80;1.15;;;18.00;67.50;;;;;;6189033;23;20001;-70
2021/11/08 03:52:13;;;;;;;2.15;1.10;;;18.00;67.50;;;;;;6215629;23;19996;-71
2021/11/08 03:54:39;;;;;;;2.22;1.08;;;18.00;67.50;;;;;;6215505;23;20008;-71
2021/11/08 03:57:05;;;;;;;3.47;1.20;;;18.00;67.50;;;;;;6215622;23;20005;-71
2021/11/08 03:59:31;;;;;;;3.08;1.30;;;17.90;67.40;;;;;;6215088;23;20012;-71
2021/11/08 04:01:57;;;;;;;2.28;1.00;;;17.90;67.50;;;;;;6215443;23;20030;-71
2021/11/08 04:04:23;;;;;;;1.90;1.08;;;17.90;67.50;;;;;;6214020;23;20079;-71
2021/11/08 04:06:48;;;;;;;2.50;1.13;;;18.00;67.60;;;;;;6214356;23;20004;-71
2021/11/08 04:09:15;;;;;;;4.03;1.17;;;17.90;67.50;;;;;;6213864;23;20005;-71
2021/11/08 04:11:42;;;;;;;2.78;1.10;;;17.90;67.60;;;;;;6213835;23;20000;-71
2021/11/08 04:14:09;;;;;;;3.45;1.55;;;17.90;67.60;;;;;;6213656;23;20443;-70
2021/11/08 04:16:35;;;;;;;2.58;1.42;;;17.90;67.60;;;;;;6215180;23;20047;-70
2021/11/08 04:19:01;;;;;;;5.30;1.27;;;17.90;67.60;;;;;;6188857;23;20074;-70
2021/11/08 04:21:27;;;;;;;2.75;1.20;;;17.90;67.60;;;;;;6213738;23;20083;-71
2021/11/08 04:23:53;;;;;;;2.60;1.13;;;17.90;67.60;;;;;;6188871;23;20455;-71
2021/11/08 04:26:22;;;;;;;2.45;0.90;;;17.90;67.60;;;;;;6188514;23;20004;-70
2021/11/08 04:28:57;;;;;;;3.00;1.55;;;17.90;67.70;;;;;;6188929;23;20012;-71
2021/11/08 04:31:24;;;;;;;3.53;1.20;;;17.90;67.70;;;;;;6215218;23;20024;-71
2021/11/08 04:33:56;;;;;;;4.10;0.98;;;17.90;67.80;;;;;;6188892;23;20001;-70
2021/11/08 04:36:41;;;;;;;;;;;17.90;67.70;;;;;;6190736;23;19997;-70
2021/11/08 05:31:41;;;;;;;2.78;1.00;;;17.70;68.10;;;;;;6215199;23;20001;-70
2021/11/08 05:34:06;;;;;;;2.17;1.00;;;17.80;68.20;;;;;;6214447;23;20001;-71
2021/11/08 05:36:32;;;;;;;1.50;0.98;;;17.80;68.20;;;;;;6213246;23;20428;-70
2021/11/08 05:38:58;;;;;;;2.53;1.15;;;17.70;68.10;;;;;;6188383;23;20005;-70
2021/11/08 05:41:23;;;;;;;2.72;1.20;;;17.70;68.10;;;;;;6212732;23;20474;-71
2021/11/08 05:43:49;;;;;;;1.83;0.93;;;17.70;68.10;;;;;;6214639;23;20035;-70
2021/11/08 05:46:15;;;;;;;2.13;1.00;;;17.80;68.20;;;;;;6214744;23;20012;-71
2021/11/08 05:48:41;;;;;;;2.30;1.08;;;17.70;68.20;;;;;;6214395;23;20007;-71
2021/11/08 05:51:07;;;;;;;2.35;1.08;;;17.80;68.30;;;;;;6214151;23;20004;-71
2021/11/08 05:53:32;;;;;;;2.03;1.00;;;17.80;68.30;;;;;;6187979;23;20004;-71
2021/11/08 05:58:43;;;;;;;2.15;0.90;;;17.80;68.20;;;;;;6214511;23;20005;-71
2021/11/08 06:11:03;;;;;;;2.15;1.30;;;17.80;68.30;;;;;;6213036;23;20004;-71
2021/11/08 06:50:37;;;;;;;1.35;0.95;;;17.70;68.60;;;;;;6214710;23;20012;-71
2021/11/08 06:53:06;;;;;;;2.13;1.00;;;17.60;68.60;;;;;;6214064;23;19996;-71
2021/11/08 06:55:32;;;;;;;2.30;0.98;;;17.60;68.60;;;;;;6214360;23;20007;-71
2021/11/08 06:58:03;;;;;;;5.50;1.15;;;17.70;68.70;;;;;;6214370;23;20525;-71
2021/11/08 07:00:30;;;;;;;3.28;0.95;;;17.60;68.60;;;;;;6214497;23;20112;-71
2021/11/08 07:02:55;;;;;;;3.63;1.20;;;17.60;68.60;;;;;;6189336;23;20055;-70
2021/11/08 07:05:21;;;;;;;3.35;1.05;;;17.70;68.70;;;;;;6214410;23;20004;-71
2021/11/08 07:07:47;;;;;;;3.35;1.17;;;17.70;68.70;;;;;;6215401;23;20005;-71
2021/11/08 07:10:13;;;;;;;3.08;1.13;;;17.70;68.70;;;;;;6211144;23;20012;-71
2021/11/08 07:12:38;;;;;;;2.85;0.90;;;17.70;68.70;;;;;;6211648;23;20396;-70
2021/11/08 07:15:06;;;;;;;3.15;1.08;;;17.70;68.50;;;;;;6210055;23;20004;-70
2021/11/08 07:17:32;;;;;;;3.00;0.93;;;17.70;68.70;;;;;;6210128;23;20044;-70
2021/11/08 07:20:00;;;;;;;2.38;1.08;;;17.70;68.50;;;;;;6184971;23;20015;-70
2021/11/08 07:22:26;;;;;;;3.58;1.10;;;17.70;68.50;;;;;;6185584;23;20005;-70
2021/11/08 07:24:52;;;;;;;3.20;1.05;;;17.80;68.50;;;;;;6211825;23;20087;-70
2021/11/08 07:27:18;;;;;;;2.13;0.88;;;17.80;68.50;;;;;;6189028;23;20036;-70
2021/11/08 07:29:43;;;;;;;2.88;0.95;;;17.80;68.50;;;;;;6215586;23;20001;-70
2021/11/08 07:32:09;;;;;;;2.83;1.00;;;17.80;68.50;;;;;;6214018;23;20000;-70
2021/11/08 07:34:35;;;;;;;2.80;1.10;;;17.80;68.40;;;;;;6189115;23;19997;-70
2021/11/08 07:37:00;;;;;;;1.92;1.17;;;17.80;68.40;;;;;;6213647;23;20001;-70
2021/11/08 07:39:26;;;;;;;2.88;1.15;;;17.80;68.40;;;;;;6213034;23;20004;-70
2021/11/08 07:41:52;;;;;;;3.00;1.00;;;17.80;68.40;;;;;;6212773;23;20007;-70
2021/11/08 07:44:17;;;;;;;4.57;1.13;;;17.80;68.30;;;;;;6213185;23;20001;-70
2021/11/08 07:46:43;;;;;;;7.38;1.63;;;17.90;68.40;;;;;;6212874;23;20040;-70
2021/11/08 07:49:09;;;;;;;5.88;1.00;;;17.90;68.40;;;;;;6213187;23;20074;-70
2021/11/08 07:51:35;;;;;;;7.22;1.83;;;17.90;68.30;;;;;;6187442;23;20452;-71
2021/11/08 07:54:00;;;;;;;12.35;2.92;;;17.90;68.40;;;;;;6212681;23;20375;-70
2021/11/08 07:56:26;;;;;;;21.65;2.90;;;17.90;68.40;;;;;;6212758;23;20023;-71
2021/11/08 07:58:52;;;;;;;16.85;3.42;;;17.90;68.40;;;;;;6213361;23;20050;-70
2021/11/08 08:01:17;;;;;;;20.85;3.88;;;17.90;68.40;;;;;;6188744;23;20001;-70
2021/11/08 08:03:45;;;;;;;17.35;3.50;;;18.00;68.40;;;;;;6215334;23;19997;-70
2021/11/08 08:06:10;;;;;;;13.75;3.00;;;18.00;68.40;;;;;;6213450;23;20001;-70
2021/11/08 08:08:36;;;;;;;11.40;2.33;;;18.00;68.40;;;;;;6213802;23;20331;-70
2021/11/08 08:11:04;;;;;;;17.35;3.53;;;18.00;68.40;;;;;;6213634;23;20055;-70
2021/11/08 08:13:30;;;;;;;12.13;2.60;;;18.00;68.30;;;;;;6215303;23;20024;-70
2021/11/08 08:16:00;;;;;;;16.77;2.83;;;18.00;68.30;;;;;;6213741;23;20004;-70
2021/11/08 08:18:27;;;;;;;11.35;3.13;;;18.00;68.30;;;;;;6187974;23;20447;-70
2021/11/08 08:20:53;;;;;;;14.07;2.20;;;18.10;68.40;;;;;;6163814;23;20354;-70
2021/11/08 08:23:18;;;;;;;9.60;2.70;;;18.10;68.40;;;;;;6213302;23;20443;-70
2021/11/08 08:25:44;;;;;;;11.82;2.10;;;18.10;68.40;;;;;;6215205;23;20388;-70
2021/11/08 08:28:11;;;;;;;10.43;2.40;;;18.00;68.30;;;;;;6214979;23;20004;-70
2021/11/08 08:30:36;;;;;;;10.75;2.53;;;18.10;68.40;;;;;;6215064;23;20001;-70
2021/11/08 08:33:02;;;;;;;11.45;2.38;;;18.10;68.40;;;;;;6213618;23;20336;-70
2021/11/08 08:35:28;;;;;;;13.90;2.75;;;18.10;68.40;;;;;;6213156;23;20055;-70
2021/11/08 08:37:54;;;;;;;14.02;2.50;;;18.10;68.30;;;;;;6213547;23;19997;-70
2021/11/08 08:40:19;;;;;;;9.57;2.70;;;18.10;68.40;;;;;;6188593;23;20004;-70
2021/11/08 08:42:45;;;;;;;7.18;1.92;;;18.10;68.30;;;;;;6213549;23;20005;-70
2021/11/08 08:45:11;;;;;;;11.57;2.35;;;18.10;68.30;;;;;;6213360;23;20001;-70
2021/11/08 08:47:37;;;;;;;15.32;2.80;;;18.10;68.30;;;;;;6188742;23;20007;-70
2021/11/08 08:50:04;;;;;;;12.15;2.03;;;18.10;68.30;;;;;;6187902;23;20443;-70
2021/11/08 08:52:29;;;;;;;11.80;2.85;;;18.10;68.30;;;;;;6188488;23;20001;-70
2021/11/08 08:54:55;;;;;;;7.75;2.25;;;18.10;68.40;;;;;;6214909;23;20000;-70
2021/11/08 08:57:21;;;;;;;8.80;1.67;;;18.10;68.30;;;;;;6213278;23;20003;-70
2021/11/08 08:59:47;;;;;;;9.93;2.60;;;18.10;68.30;;;;;;6214782;23;20000;-70
2021/11/08 09:02:13;;;;;;;13.10;2.10;;;18.10;68.20;;;;;;6214799;23;20001;-70
2021/11/08 09:04:38;;;;;;;9.02;2.60;;;18.10;68.30;;;;;;6212985;23;20031;-70
2021/11/08 09:07:05;;;;;;;9.68;2.42;;;18.10;68.20;;;;;;6212917;23;20075;-70
2021/11/08 09:09:31;;;;;;;7.88;2.35;;;18.20;68.30;;;;;;6213130;23;20000;-70
2021/11/08 09:11:56;;;;;;;8.23;2.30;;;18.20;68.30;;;;;;6188320;23;20048;-70
2021/11/08 09:14:22;;;;;;;8.02;2.15;;;18.20;68.30;;;;;;6214681;23;20007;-70
2021/11/08 09:16:47;;;;;;;6.20;2.13;;;18.10;68.20;;;;;;6214673;23;20080;-70
2021/11/08 09:19:13;;;;;;;5.75;2.08;;;18.10;68.20;;;;;;6212446;23;20016;-70
2021/11/08 09:21:40;;;;;;;6.63;2.95;;;18.20;68.30;;;;;;6213350;23;20001;-70
2021/11/08 09:24:06;;;;;;;8.00;2.55;;;18.20;68.30;;;;;;6213093;23;20008;-70
2021/11/08 09:26:33;;;;;;;10.48;2.53;;;18.20;68.20;;;;;;6214659;23;20336;-70
2021/11/08 09:28:59;;;;;;;11.00;2.20;;;18.20;68.20;;;;;;6213205;23;20005;-70
2021/11/08 09:31:25;;;;;;;8.85;2.40;;;18.20;68.30;;;;;;6213036;23;20460;-70
2021/11/08 09:33:52;;;;;;;9.30;1.80;;;18.20;68.20;;;;;;6212777;23;20331;-70
2021/11/08 09:36:18;;;;;;;8.25;2.05;;;18.20;68.20;;;;;;6214499;23;20001;-70
2021/11/08 09:38:54;;;;;;;12.77;1.90;;;18.20;68.20;;;;;;6213114;23;20032;-70
2021/11/08 09:41:20;;;;;;;9.95;2.17;;;18.20;68.20;;;;;;6213148;23;20000;-70
2021/11/08 09:43:47;;;;;;;7.68;1.90;;;18.20;68.20;;;;;;6213198;23;20075;-70
2021/11/08 09:46:13;;;;;;;5.53;1.80;;;18.20;68.20;;;;;;6163687;23;20249;-70
2021/11/08 09:48:39;;;;;;;12.57;1.73;;;18.20;68.20;;;;;;6187640;23;20008;-70
2021/11/08 09:51:09;;;;;;;6.70;1.80;;;18.20;68.20;;;;;;6212964;23;20029;-70
2021/11/08 09:53:35;;;;;;;4.50;1.58;;;18.20;68.20;;;;;;6188866;23;20087;-70
2021/11/08 09:56:03;;;;;;;4.70;1.42;;;18.20;68.20;;;;;;6213070;23;20000;-70
2021/11/08 09:58:28;;;;;;;10.32;2.00;;;18.20;68.20;;;;;;6188416;23;20056;-70
2021/11/08 10:00:55;;;;;;;8.55;1.98;;;18.20;68.10;;;;;;6213092;23;20448;-70
2021/11/08 10:03:24;;;;;;;6.70;1.63;;;18.20;68.20;;;;;;6214092;23;20444;-70
2021/11/08 10:05:50;;;;;;;7.53;1.48;;;18.30;68.20;;;;;;6214680;23;20005;-70
2021/11/08 10:08:19;;;;;;;7.70;1.88;;;18.30;68.20;;;;;;6213071;23;20001;-70
2021/11/08 10:10:45;;;;;;;7.97;1.70;;;18.20;68.10;;;;;;6188595;23;20028;-70
2021/11/08 10:13:18;;;;;;;5.82;1.60;;;18.20;68.10;;;;;;6212996;23;20440;-70
2021/11/08 10:15:46;;;;;;;6.95;1.70;;;18.30;68.20;;;;;;6187961;23;20465;-70
2021/11/08 10:18:12;;;;;;;6.47;1.65;;;18.30;68.10;;;;;;6212808;23;20013;-70
2021/11/08 10:20:42;;;;;;;5.20;1.85;;;18.20;68.10;;;;;;6216467;23;20004;-70
2021/11/08 10:23:10;;;;;;;7.38;1.58;;;18.30;68.10;;;;;;6214917;23;20483;-70
2021/11/08 10:25:37;;;;;;;6.68;1.73;;;18.30;68.10;;;;;;6214969;23;20039;-70
2021/11/08 10:28:16;;;;;;;5.20;1.67;;;18.30;68.10;;;;;;6190076;23;20444;-70
2021/11/08 10:30:42;;;;;;;5.65;1.63;;;18.30;68.10;;;;;;6214391;23;20004;-70
2021/11/08 10:33:19;;;;;;;5.75;2.03;;;18.30;68.10;;;;;;6214919;23;20456;-70
2021/11/08 10:35:50;;;;;;;8.98;1.80;;;18.30;68.10;;;;;;6190754;23;20329;-70
2021/11/08 10:38:21;;;;;;;4.28;1.70;;;18.30;68.10;;;;;;6214717;23;20429;-70
2021/11/08 10:40:53;;;;;;;4.90;1.80;;;18.30;68.10;;;;;;6164996;23;20353;-70
2021/11/08 10:43:29;;;;;;;7.28;1.67;;;18.30;68.10;;;;;;6214664;23;20005;-70
2021/11/08 10:45:59;;;;;;;5.43;1.60;;;18.30;68.10;;;;;;6215774;23;20011;-70
2021/11/08 10:48:30;;;;;;;4.72;1.83;;;18.30;68.10;;;;;;6216086;23;20000;-70
2021/11/08 10:50:57;;;;;;;3.13;1.58;;;18.30;68.10;;;;;;6216215;23;20084;-70
2021/11/08 10:53:23;;;;;;;4.20;1.50;;;18.30;68.10;;;;;;6214542;23;20007;-70
2021/11/08 10:55:53;;;;;;;3.40;1.67;;;18.30;68.10;;;;;;6216162;23;20401;-70
2021/11/08 10:58:20;;;;;;;3.15;1.50;;;18.30;68.10;;;;;;6214597;23;20448;-70
2021/11/08 11:00:57;;;;;;;4.97;1.73;;;18.30;68.10;;;;;;6214188;23;20513;-70
2021/11/08 11:03:23;;;;;;;2.42;1.40;;;18.30;68.10;;;;;;6215929;23;20317;-70
2021/11/08 11:06:05;;;;;;;3.15;1.63;;;18.30;68.10;;;;;;6214586;23;20008;-70
2021/11/08 11:08:32;;;;;;;3.42;1.58;;;18.30;68.00;;;;;;6214516;23;20051;-70
2021/11/08 11:11:04;;;;;;;7.85;2.03;;;18.30;68.00;;;;;;6189489;23;20005;-70
2021/11/08 11:13:31;;;;;;;4.18;1.88;;;18.30;69.00;;;;;;6214270;23;20440;-70
2021/11/08 11:16:00;;;;;;;6.72;2.20;;;18.30;68.00;;;;;;6214096;23;19997;-70
2021/11/08 11:18:28;;;;;;;3.20;1.85;;;18.30;68.00;;;;;;6214120;23;20008;-70
2021/11/08 11:20:54;;;;;;;3.97;1.30;;;18.30;68.00;;;;;;6189917;23;20083;-70
2021/11/08 11:23:22;;;;;;;5.55;2.13;;;18.30;68.00;;;;;;6215630;23;20043;-70
2021/11/08 11:25:53;;;;;;;3.70;1.73;;;18.40;68.10;;;;;;6189888;23;20079;-70
2021/11/08 11:28:24;;;;;;;3.10;1.63;;;18.40;68.00;;;;;;6214375;23;20004;-70
2021/11/08 11:30:50;;;;;;;6.97;1.73;;;18.30;68.00;;;;;;6213868;23;20004;-70
2021/11/08 11:33:20;;;;;;;4.45;1.85;;;18.30;68.00;;;;;;6215539;23;20088;-70
2021/11/08 11:36:00;;;;;;;3.25;1.55;;;18.40;68.00;;;;;;6215597;23;19997;-70
2021/11/08 11:38:29;;;;;;;2.80;1.30;;;18.40;68.10;;;;;;6215583;23;20005;-70
2021/11/08 11:41:10;;;;;;;2.35;1.60;;;18.30;68.00;;;;;;6214361;23;20070;-70
2021/11/08 11:43:42;;;;;;;5.85;1.63;;;18.30;68.00;;;;;;6213899;23;20008;-70
2021/11/08 11:46:13;;;;;;;3.70;1.92;;;18.40;68.00;;;;;;6214191;23;20005;-70
2021/11/08 11:48:39;;;;;;;3.70;1.70;;;18.40;68.00;;;;;;6213943;23;20008;-70
2021/11/08 11:51:06;;;;;;;3.55;1.65;;;18.30;68.00;;;;;;6188892;23;20082;-70
2021/11/08 11:53:32;;;;;;;6.93;1.55;;;18.40;68.00;;;;;;6215461;23;20009;-70
2021/11/08 11:55:58;;;;;;;5.90;1.73;;;18.40;68.00;;;;;;6214046;23;20004;-70
2021/11/08 11:58:24;;;;;;;3.00;1.60;;;18.40;68.00;;;;;;6213621;23;20000;-70
2021/11/08 12:00:52;;;;;;;4.43;1.40;;;18.40;68.00;;;;;;6215435;23;20005;-70
2021/11/08 12:03:18;;;;;;;3.13;1.25;;;18.40;68.00;;;;;;6213862;23;20386;-70
2021/11/08 12:05:46;;;;;;;3.67;1.60;;;18.40;68.00;;;;;;6214013;23;20470;-70
2021/11/08 12:08:13;;;;;;;2.35;1.25;;;18.40;68.00;;;;;;6189573;23;20008;-70
2021/11/08 12:10:46;;;;;;;5.07;2.05;;;18.40;68.00;;;;;;6188742;23;20007;-70
2021/11/08 12:13:13;;;;;;;3.00;1.23;;;18.40;68.00;;;;;;6213422;23;20000;-70
2021/11/08 12:15:39;;;;;;;3.50;1.77;;;18.40;68.00;;;;;;6213653;23;20395;-70
2021/11/08 12:18:08;;;;;;;3.03;1.60;;;18.40;68.00;;;;;;6213593;23;20008;-70
2021/11/08 12:20:39;;;;;;;4.05;1.58;;;18.40;67.90;;;;;;6213647;23;20067;-70
2021/11/08 12:23:11;;;;;;;2.92;1.25;;;18.40;68.00;;;;;;6190007;23;20490;-70
2021/11/08 12:25:42;;;;;;;2.92;1.60;;;18.40;67.90;;;;;;6213691;23;20032;-70
2021/11/08 12:28:16;;;;;;;3.15;1.55;;;18.40;67.90;;;;;;6213380;23;20000;-70
2021/11/08 12:30:50;;;;;;;4.05;1.52;;;18.50;67.90;;;;;;6213549;23;20027;-70
2021/11/08 12:33:29;;;;;;;3.72;1.70;;;18.40;67.90;;;;;;6213645;23;20024;-70
2021/11/08 12:35:58;;;;;;;3.13;1.52;;;18.40;67.90;;;;;;6213642;23;20023;-70
2021/11/08 12:38:28;;;;;;;2.90;1.50;;;18.40;67.90;;;;;;6213652;23;20004;-70
2021/11/08 12:41:05;;;;;;;2.70;1.30;;;18.40;67.90;;;;;;6188648;23;20028;-70
2021/11/08 12:43:33;;;;;;;2.63;1.27;;;18.40;67.80;;;;;;6214931;23;20432;-70
2021/11/08 12:46:13;;;;;;;3.13;1.38;;;18.40;67.90;;;;;;6189011;23;20017;-70
2021/11/08 12:48:39;;;;;;;2.65;1.23;;;18.50;67.80;;;;;;6214720;23;20000;-70
2021/11/08 12:51:05;;;;;;;1.20;1.08;;;18.40;67.90;;;;;;6213498;23;20012;-70
2021/11/08 12:53:34;;;;;;;4.78;1.60;;;18.40;67.90;;;;;;6214781;23;20000;-70
2021/11/08 12:56:07;;;;;;;1.85;1.00;;;18.40;67.80;;;;;;6214427;23;20079;-70
2021/11/08 12:58:45;;;;;;;2.92;1.50;;;18.40;67.80;;;;;;6189776;23;19996;-70
2021/11/08 13:01:15;;;;;;;6.53;1.40;;;18.40;67.80;;;;;;6214885;23;20502;-70
2021/11/08 13:03:41;;;;;;;4.05;1.55;;;18.40;67.80;;;;;;6189620;23;20011;-70
2021/11/08 13:06:24;;;;;;;2.75;1.38;;;18.40;67.70;;;;;;6188504;23;20005;-70
2021/11/08 13:08:49;;;;;;;;;;;18.50;67.80;;;;;;6213971;23;20009;-70
2021/11/08 13:11:15;;;;;;;2.30;1.30;;;18.40;67.70;;;;;;6212865;23;19950;-70
2021/11/08 13:13:54;;;;;;;3.20;1.30;;;18.40;68.00;;;;;;6214668;23;20131;-70
2021/11/08 13:16:41;;;;;;;2.30;1.38;;;18.40;68.00;;;;;;6214777;23;20007;-70
2021/11/08 13:19:11;;;;;;;4.13;1.50;;;18.40;68.00;;;;;;6191756;23;20024;-70
2021/11/08 13:21:38;;;;;;;2.13;1.20;;;18.40;67.90;;;;;;6188916;23;20075;-70
2021/11/08 13:24:05;;;;;;;3.38;1.15;;;18.40;67.90;;;;;;6212781;23;20012;-70
2021/11/08 13:26:30;;;;;;;2.15;1.13;;;18.40;67.90;;;;;;6214591;23;20506;-70
2021/11/08 13:28:56;;;;;;;1.25;0.98;;;18.40;67.90;;;;;;6213264;23;20001;-70
2021/11/08 13:31:22;;;;;;;1.55;1.10;;;18.40;67.90;;;;;;6213036;23;19997;-70
2021/11/08 13:33:51;;;;;;;2.10;1.10;;;18.40;67.80;;;;;;6214682;23;20097;-70
2021/11/08 13:36:16;;;;;;;1.48;0.85;;;18.50;67.80;;;;;;6213241;23;20079;-70
2021/11/08 13:38:53;;;;;;;1.40;1.10;;;18.40;67.70;;;;;;6187588;23;20070;-70
2021/11/08 13:41:23;;;;;;;2.03;1.25;;;18.50;67.70;;;;;;6214596;23;20015;-70
2021/11/08 13:43:50;;;;;;;2.60;1.13;;;18.50;67.80;;;;;;6213151;23;20008;-70
2021/11/08 13:46:30;;;;;;;2.65;0.95;;;18.50;67.80;;;;;;6214600;23;20008;-70
2021/11/08 13:49:04;;;;;;;1.67;1.17;;;18.50;67.80;;;;;;6213083;23;20028;-70
2021/11/08 13:51:34;;;;;;;2.17;1.20;;;18.50;67.70;;;;;;6189190;23;20084;-70
2021/11/08 13:54:06;;;;;;;1.42;1.17;;;18.50;67.70;;;;;;6214839;23;20074;-70
2021/11/08 13:56:37;;;;;;;1.52;1.10;;;18.50;67.70;;;;;;6216670;23;20071;-70
2021/11/08 13:59:07;;;;;;;2.80;1.30;;;18.50;67.70;;;;;;6190588;23;20375;-70
2021/11/08 14:01:36;;;;;;;1.67;1.08;;;18.50;67.70;;;;;;6215170;23;20027;-70
2021/11/08 14:04:02;;;;;;;2.30;1.35;;;18.50;67.70;;;;;;6215150;23;20007;-70
2021/11/08 14:06:32;;;;;;;1.38;1.00;;;18.50;67.70;;;;;;6216489;23;20005;-70
2021/11/08 14:08:59;;;;;;;3.80;1.45;;;18.50;67.70;;;;;;6190631;23;20438;-70
2021/11/08 14:11:38;;;;;;;3.80;1.40;;;18.50;67.70;;;;;;6190040;23;20005;-70
2021/11/08 14:14:06;;;;;;;1.50;0.82;;;18.50;67.60;;;;;;6215030;23;20020;-70
2021/11/08 14:16:32;;;;;;;1.52;1.02;;;18.50;67.70;;;;;;6214965;23;20031;-70
2021/11/08 14:18:58;;;;;;;1.77;1.30;;;18.50;67.70;;;;;;6214881;23;20356;-70
2021/11/08 14:21:24;;;;;;;3.15;1.10;;;18.50;67.60;;;;;;6216365;23;20478;-70
2021/11/08 14:23:58;;;;;;;1.38;0.88;;;18.50;67.60;;;;;;6189572;23;20000;-70
2021/11/08 14:26:24;;;;;;;2.45;1.13;;;18.50;67.50;;;;;;6215006;23;19996;-70
2021/11/08 14:28:50;;;;;;;0.98;0.85;;;18.50;67.60;;;;;;6214838;23;20446;-70
2021/11/08 14:31:17;;;;;;;1.52;1.10;;;18.50;67.50;;;;;;6216216;23;20005;-70